Terminal Aerodrome Forecast
Issued by NWS

Home | Current Version | Previous Version | Graphics & Text | Print | Product List | Glossary On
Versions: 1 2 3 4 5 6 7 8 9 10 11 12 13
000
FTUS43 KMPX 191100
TAFRNH
TAF
KRNH 191120Z 1912/2012 18007KT P6SM BKN080
     FM191500 20012G18KT P6SM SCT050 BKN250
     FM200200 18005KT P6SM SCT100 BKN200=

USA.gov is the U.S. government's official web portal to all federal, state and local government web resources and services.